Time;durP1;ratioP1;P1;durP2;ratioP2;P2;SDS_P1;SDS_P2;PMS_P1;PMS_P2;Temp;Humidity;BMP_temperature;BMP_pressure;BME280_temperature;BME280_humidity;BME280_pressure;Samples;Min_cycle;Max_cycle;Signal;HPM_P1;HPM_P2
2022/03/18 00:02:24;;;;;;;;;;;7.20;99.90;;;;;;5037915;28;19920;-87
2022/03/18 00:04:50;;;;;;;;;;;7.30;99.90;;;;;;5054785;28;19987;-86
2022/03/18 00:07:16;;;;;;;;;;;7.30;99.90;;;;;;5051131;28;19982;-86
2022/03/18 00:09:42;;;;;;;;;;;7.20;99.90;;;;;;5070671;28;19963;-86
2022/03/18 00:12:11;;;;;;;;;;;7.20;99.90;;;;;;5036507;28;19913;-86
2022/03/18 00:14:40;;;;;;;;;;;7.20;99.90;;;;;;5051458;28;19912;-87
2022/03/18 00:17:06;;;;;;;;;;;7.20;99.90;;;;;;5066069;28;19913;-86
2022/03/18 00:19:31;;;;;;;;;;;7.20;99.90;;;;;;5066649;28;19972;-86
2022/03/18 00:22:01;;;;;;;;;;;7.20;99.90;;;;;;5066702;28;19969;-88
2022/03/18 00:24:33;;;;;;;;;;;7.20;99.90;;;;;;5045023;28;19919;-86
2022/03/18 00:26:59;;;;;;;;;;;7.10;99.90;;;;;;5065467;28;20383;-87
2022/03/18 00:29:25;;;;;;;;;;;7.10;99.90;;;;;;5030951;28;19920;-87
2022/03/18 00:31:51;;;;;;;;;;;7.10;99.90;;;;;;5061370;28;19913;-87
2022/03/18 00:34:17;;;;;;;;;;;7.10;99.90;;;;;;5048477;28;19923;-87
2022/03/18 00:36:42;;;;;;;;;;;7.10;99.90;;;;;;5049523;28;20317;-86
2022/03/18 00:39:08;;;;;;;;;;;7.20;99.90;;;;;;5065631;28;19939;-85
2022/03/18 00:41:34;;;;;;;;;;;7.10;99.90;;;;;;5050092;28;19920;-87
2022/03/18 00:43:59;;;;;;;;;;;7.20;99.90;;;;;;5050084;28;20634;-86
2022/03/18 00:46:25;;;;;;;;;;;7.10;99.90;;;;;;5042589;28;20015;-87
2022/03/18 00:54:20;;;;;;;;;;;7.00;99.90;;;;;;5040434;28;19913;-85
2022/03/18 00:56:46;;;;;;;;;;;7.00;99.90;;;;;;5046185;28;19921;-87
2022/03/18 00:59:12;;;;;;;;;;;6.90;99.90;;;;;;5058165;28;20280;-85
2022/03/18 01:01:37;;;;;;;;;;;6.90;99.90;;;;;;5049824;28;20370;-86
2022/03/18 01:04:04;;;;;;;;;;;6.80;99.90;;;;;;5030118;28;19921;-87
2022/03/18 01:06:30;;;;;;;;;;;6.80;99.90;;;;;;5046027;28;20009;-87
2022/03/18 01:08:56;;;;;;;;;;;6.80;99.90;;;;;;5030555;28;20359;-86
2022/03/18 01:11:22;;;;;;;;;;;6.80;99.90;;;;;;5064175;28;19917;-87
2022/03/18 01:13:47;;;;;;;;;;;6.80;99.90;;;;;;5061314;28;19920;-87
2022/03/18 01:16:13;;;;;;;;;;;6.80;99.90;;;;;;5049225;28;19924;-86
2022/03/18 01:18:39;;;;;;;;;;;6.70;99.90;;;;;;5051094;28;20420;-88
2022/03/18 01:21:05;;;;;;;;;;;6.70;99.90;;;;;;5050304;28;19928;-86
2022/03/18 01:23:30;;;;;;;;;;;6.70;99.90;;;;;;5053416;28;19913;-85
2022/03/18 01:25:56;;;;;;;;;;;6.70;99.90;;;;;;5018333;28;20056;-87
2022/03/18 01:28:22;;;;;;;;;;;6.70;99.90;;;;;;5057627;28;19917;-86
2022/03/18 01:30:48;;;;;;;;;;;6.60;99.90;;;;;;5083575;28;19920;-86
2022/03/18 01:33:13;;;;;;;;;;;6.60;99.90;;;;;;5033596;28;19917;-85
2022/03/18 01:35:39;;;;;;;;;;;6.60;99.90;;;;;;5069532;28;20426;-86
2022/03/18 01:38:04;;;;;;;;;;;6.60;99.90;;;;;;5033792;28;19996;-86
2022/03/18 01:40:31;;;;;;;;;;;6.60;99.90;;;;;;5032910;28;20282;-88
2022/03/18 01:42:56;;;;;;;;;;;6.60;99.90;;;;;;5033337;28;19913;-86
2022/03/18 01:45:23;;;;;;;;;;;6.60;99.90;;;;;;5040944;28;20015;-85
2022/03/18 01:47:49;;;;;;;;;;;6.60;99.90;;;;;;5069084;28;19912;-87
2022/03/18 01:50:14;;;;;;;;;;;6.50;99.90;;;;;;5041692;28;20356;-86
2022/03/18 01:52:40;;;;;;;;;;;6.50;99.90;;;;;;5085729;28;19913;-85
2022/03/18 01:55:06;;;;;;;;;;;6.50;99.90;;;;;;5069684;28;20383;-86
2022/03/18 01:57:32;;;;;;;;;;;6.50;99.90;;;;;;5015979;28;20436;-86
2022/03/18 01:59:58;;;;;;;;;;;6.40;99.90;;;;;;5029758;28;19921;-85
2022/03/18 02:02:24;;;;;;;;;;;6.40;99.90;;;;;;5030634;28;19978;-85
2022/03/18 02:04:50;;;;;;;;;;;6.40;99.90;;;;;;5066164;28;19975;-86
2022/03/18 02:07:16;;;;;;;;;;;6.40;99.90;;;;;;5031984;28;19917;-86
2022/03/18 02:09:42;;;;;;;;;;;6.40;99.90;;;;;;5035177;28;19940;-87
2022/03/18 02:12:09;;;;;;;;;;;6.40;99.90;;;;;;5062761;28;19913;-86
2022/03/18 02:14:35;;;;;;;;;;;6.40;99.90;;;;;;5069009;28;19916;-84
2022/03/18 02:17:01;;;;;;;;;;;6.40;99.90;;;;;;5078756;28;19913;-86
2022/03/18 02:19:26;;;;;;;;;;;6.40;99.90;;;;;;5057673;28;19913;-86
2022/03/18 02:21:53;;;;;;;;;;;6.40;99.90;;;;;;5069166;28;19955;-86
2022/03/18 02:24:19;;;;;;;;;;;6.30;99.90;;;;;;5052670;28;20378;-86
2022/03/18 02:26:49;;;;;;;;;;;6.40;99.90;;;;;;5065479;28;20350;-86
2022/03/18 02:29:16;;;;;;;;;;;6.40;99.90;;;;;;5064930;28;19967;-86
2022/03/18 02:31:42;;;;;;;;;;;6.40;99.90;;;;;;5049087;28;19913;-86
2022/03/18 02:34:08;;;;;;;;;;;6.40;99.90;;;;;;5035303;28;19963;-85
2022/03/18 02:36:33;;;;;;;;;;;6.40;99.90;;;;;;5061630;28;19916;-86
2022/03/18 02:38:59;;;;;;;;;;;6.30;99.90;;;;;;5082147;28;19929;-86
2022/03/18 02:41:24;;;;;;;;;;;6.30;99.90;;;;;;5080341;28;19920;-86
2022/03/18 02:43:50;;;;;;;;;;;6.20;99.90;;;;;;5045926;28;20430;-87
2022/03/18 02:46:16;;;;;;;;;;;6.30;99.90;;;;;;5048290;28;19916;-86
2022/03/18 02:48:41;;;;;;;;;;;6.30;99.90;;;;;;5040205;28;19913;-85
2022/03/18 02:51:07;;;;;;;;;;;6.30;99.90;;;;;;5084170;28;20284;-86
2022/03/18 02:53:34;;;;;;;;;;;6.30;99.90;;;;;;5051255;28;20271;-84
2022/03/18 02:55:59;;;;;;;;;;;6.30;99.90;;;;;;5051487;28;19924;-86
2022/03/18 02:58:25;;;;;;;;;;;6.30;99.90;;;;;;5068123;28;20305;-86
2022/03/18 03:00:51;;;;;;;;;;;6.30;99.90;;;;;;5046956;28;20001;-86
2022/03/18 03:03:17;;;;;;;;;;;6.20;99.90;;;;;;5051587;28;19920;-86
2022/03/18 03:08:27;;;;;;;;;;;6.20;99.90;;;;;;5080717;28;20375;-86
2022/03/18 03:10:53;;;;;;;;;;;6.20;99.90;;;;;;5054387;28;19928;-85
2022/03/18 03:13:18;;;;;;;;;;;6.30;99.90;;;;;;5007817;28;19917;-85
2022/03/18 03:15:44;;;;;;;;;;;6.30;99.90;;;;;;5047653;28;19917;-87
2022/03/18 03:18:09;;;;;;;;;;;6.30;99.90;;;;;;5014559;28;20390;-86
2022/03/18 03:20:35;;;;;;;;;;;6.20;99.90;;;;;;5064503;28;19917;-85
2022/03/18 03:23:01;;;;;;;;;;;6.20;99.90;;;;;;5066946;28;19917;-86
2022/03/18 03:25:27;;;;;;;;;;;6.20;99.90;;;;;;5045185;28;19920;-86
2022/03/18 03:27:54;;;;;;;;;;;6.20;99.90;;;;;;5064531;28;19913;-86
2022/03/18 03:30:20;;;;;;;;;;;6.20;99.90;;;;;;5084080;28;20386;-86
2022/03/18 03:32:46;;;;;;;;;;;6.10;99.90;;;;;;5066359;28;19945;-86
2022/03/18 03:35:12;;;;;;;;;;;6.10;99.90;;;;;;5045249;28;19956;-87
2022/03/18 03:37:38;;;;;;;;;;;6.10;99.90;;;;;;5046722;28;19944;-85
2022/03/18 03:40:04;;;;;;;;;;;6.10;99.90;;;;;;5047203;28;20280;-86
2022/03/18 03:42:30;;;;;;;;;;;6.10;99.90;;;;;;5074974;28;19958;-86
2022/03/18 03:44:55;;;;;;;;;;;6.10;99.90;;;;;;5064571;28;19913;-86
2022/03/18 03:47:21;;;;;;;;;;;6.10;99.90;;;;;;5048785;28;19909;-86
2022/03/18 03:49:47;;;;;;;;;;;6.10;99.90;;;;;;5062099;28;19913;-86
2022/03/18 03:52:13;;;;;;;;;;;6.10;99.90;;;;;;5030602;28;19923;-87
2022/03/18 03:54:40;;;;;;;;;;;6.10;99.90;;;;;;5070599;28;19913;-85
2022/03/18 03:57:06;;;;;;;;;;;6.10;99.90;;;;;;5045426;28;19917;-86
2022/03/18 03:59:32;;;;;;;;;;;6.10;99.90;;;;;;5064910;28;19971;-85
2022/03/18 04:01:58;;;;;;;;;;;6.10;99.90;;;;;;5048162;28;20414;-86
2022/03/18 04:04:27;;;;;;;;;;;6.00;99.90;;;;;;5081033;28;19936;-85
2022/03/18 04:06:52;;;;;;;;;;;6.00;99.90;;;;;;5048599;28;19919;-86
2022/03/18 04:09:18;;;;;;;;;;;6.00;99.90;;;;;;5050080;28;19913;-86
2022/03/18 04:11:44;;;;;;;;;;;6.00;99.90;;;;;;5045665;28;19971;-86
2022/03/18 04:14:09;;;;;;;;;;;6.00;99.90;;;;;;5065210;28;19912;-87
2022/03/18 04:16:35;;;;;;;;;;;6.00;99.90;;;;;;5049370;28;19913;-87
2022/03/18 04:19:03;;;;;;;;;;;6.00;99.90;;;;;;5047397;28;19920;-86
2022/03/18 04:21:29;;;;;;;;;;;6.00;99.90;;;;;;5041146;28;19975;-85
2022/03/18 04:23:54;;;;;;;;;;;6.00;99.90;;;;;;5053842;28;20343;-86
2022/03/18 04:26:20;;;;;;;;;;;6.00;99.90;;;;;;5049825;28;20071;-87
2022/03/18 04:28:45;;;;;;;;;;;6.00;99.90;;;;;;5038133;28;19916;-85
2022/03/18 04:31:11;;;;;;;;;;;5.90;99.90;;;;;;5047450;28;19917;-85
2022/03/18 04:33:37;;;;;;;;;;;5.90;99.90;;;;;;5062457;28;19917;-85
2022/03/18 04:36:02;;;;;;;;;;;5.90;99.90;;;;;;5049634;28;19913;-86
2022/03/18 04:38:28;;;;;;;;;;;5.90;99.90;;;;;;5047987;28;20012;-87
2022/03/18 04:40:54;;;;;;;;;;;5.90;99.90;;;;;;5056256;28;20329;-87
2022/03/18 04:43:19;;;;;;;;;;;5.90;99.90;;;;;;5080463;28;19924;-87
2022/03/18 04:45:45;;;;;;;;;;;5.90;99.90;;;;;;5063345;28;19940;-86
2022/03/18 04:48:11;;;;;;;;;;;5.90;99.90;;;;;;5044620;28;19912;-88
2022/03/18 04:50:36;;;;;;;;;;;5.90;99.90;;;;;;5049759;28;19951;-87
2022/03/18 04:53:02;;;;;;;;;;;5.90;99.90;;;;;;5035697;28;20000;-86
2022/03/18 04:55:28;;;;;;;;;;;5.90;99.90;;;;;;5040723;28;19917;-86
2022/03/18 04:57:53;;;;;;;;;;;5.90;99.90;;;;;;5033762;28;20371;-86
2022/03/18 05:00:24;;;;;;;;;;;5.80;99.90;;;;;;5055378;28;19917;-88
2022/03/18 05:02:50;;;;;;;;;;;5.80;99.90;;;;;;5066693;28;19963;-88
2022/03/18 05:05:19;;;;;;;;;;;5.80;99.90;;;;;;5051196;28;19948;-86
2022/03/18 05:07:52;;;;;;;;;;;5.70;99.90;;;;;;5069680;28;19912;-87
2022/03/18 05:10:18;;;;;;;;;;;5.70;99.90;;;;;;5049145;28;19913;-88
2022/03/18 05:12:44;;;;;;;;;;;5.80;99.90;;;;;;5066898;28;19913;-87
2022/03/18 05:15:10;;;;;;;;;;;5.70;99.90;;;;;;5035819;28;19913;-88
2022/03/18 05:17:36;;;;;;;;;;;5.70;99.90;;;;;;5050551;28;19935;-88
2022/03/18 05:20:02;;;;;;;;;;;5.70;99.90;;;;;;5084766;28;19970;-88
2022/03/18 05:22:28;;;;;;;;;;;5.80;99.90;;;;;;5053378;28;20007;-87
2022/03/18 05:24:54;;;;;;;;;;;5.70;99.90;;;;;;5087020;28;19999;-87
2022/03/18 05:27:19;;;;;;;;;;;5.60;99.90;;;;;;5047749;28;19963;-86
2022/03/18 05:29:45;;;;;;;;;;;5.70;99.90;;;;;;5060563;28;19909;-86
2022/03/18 05:32:11;;;;;;;;;;;5.70;99.90;;;;;;5062862;28;19921;-85
2022/03/18 05:34:36;;;;;;;;;;;5.60;99.90;;;;;;5036260;28;19913;-88
2022/03/18 05:37:05;;;;;;;;;;;5.60;99.90;;;;;;5069615;28;19939;-88
2022/03/18 05:39:31;;;;;;;;;;;5.60;99.90;;;;;;5017545;28;19913;-86
2022/03/18 05:41:57;;;;;;;;;;;5.60;99.90;;;;;;5048893;28;19982;-86
2022/03/18 05:44:22;;;;;;;;;;;5.60;99.90;;;;;;5064892;28;20470;-87
2022/03/18 05:46:48;;;;;;;;;;;5.60;99.90;;;;;;5052516;28;19916;-88
2022/03/18 05:49:14;;;;;;;;;;;5.50;99.90;;;;;;5079738;28;19913;-87
2022/03/18 05:51:40;;;;;;;;;;;5.50;99.90;;;;;;5060746;28;19913;-86
2022/03/18 05:54:06;;;;;;;;;;;5.50;99.90;;;;;;5043442;28;19913;-87
2022/03/18 05:59:16;;;;;;;;;;;5.60;99.90;;;;;;5083943;28;19959;-87
2022/03/18 06:01:42;;;;;;;;;;;5.60;99.90;;;;;;5052927;28;19920;-87
2022/03/18 06:04:10;;;;;;;;;;;5.60;99.90;;;;;;5085630;28;20286;-87
2022/03/18 06:06:37;;;;;;;;;;;5.60;99.90;;;;;;5045138;28;19917;-87
2022/03/18 06:11:50;;;;;;;;;;;5.60;99.90;;;;;;5085249;28;19917;-87
2022/03/18 06:14:16;;;;;;;;;;;5.60;99.90;;;;;;5052920;28;20386;-86
2022/03/18 06:16:42;;;;;;;;;;;5.50;99.90;;;;;;5029744;28;19919;-87
2022/03/18 06:19:09;;;;;;;;;;;5.60;99.90;;;;;;5093734;27;19925;-86
2022/03/18 06:21:34;;;;;;;;;;;5.60;99.90;;;;;;5078541;28;19928;-87
2022/03/18 06:24:00;;;;;;;;;;;5.50;99.90;;;;;;5068871;28;19917;-87
2022/03/18 06:26:30;;;;;;;;;;;5.50;99.90;;;;;;5059132;28;19924;-86
2022/03/18 06:28:56;;;;;;;;;;;5.50;99.90;;;;;;5048415;28;19924;-84
2022/03/18 06:31:22;;;;;;;;;;;5.50;99.90;;;;;;5067570;28;19917;-87
2022/03/18 06:33:47;;;;;;;;;;;5.50;99.90;;;;;;5058535;28;20435;-86
2022/03/18 06:36:14;;;;;;;;;;;5.40;99.90;;;;;;5059995;28;19928;-86
2022/03/18 06:38:40;;;;;;;;;;;5.50;99.90;;;;;;5051623;28;19917;-90
2022/03/18 06:41:05;;;;;;;;;;;5.50;99.90;;;;;;5078191;28;20425;-85
2022/03/18 06:43:31;;;;;;;;;;;5.40;99.90;;;;;;5048910;28;19991;-87
2022/03/18 06:45:56;;;;;;;;;;;5.40;99.90;;;;;;5050061;28;19927;-87
2022/03/18 06:48:22;;;;;;;;;;;5.40;99.90;;;;;;5048669;28;19921;-85
2022/03/18 06:50:48;;;;;;;;;;;5.40;99.90;;;;;;5052810;28;20287;-85
2022/03/18 06:53:14;;;;;;;;;;;5.40;99.90;;;;;;5067143;28;19917;-86
2022/03/18 06:55:39;;;;;;;;;;;5.40;99.90;;;;;;5051112;28;20420;-86
2022/03/18 06:58:05;;;;;;;;;;;5.40;99.90;;;;;;5048428;28;20046;-86
2022/03/18 07:00:30;;;;;;;;;;;5.40;99.90;;;;;;5050759;28;19917;-85
2022/03/18 07:02:56;;;;;;;;;;;5.40;99.90;;;;;;5067179;28;19924;-86
2022/03/18 07:05:22;;;;;;;;;;;5.40;99.90;;;;;;5062676;28;20278;-85
2022/03/18 07:07:50;;;;;;;;;;;5.40;99.90;;;;;;5062938;28;19920;-86
2022/03/18 07:10:16;;;;;;;;;;;5.50;99.90;;;;;;5058432;22;20028;-77
2022/03/18 07:12:42;;;;;;;;;;;5.50;99.90;;;;;;5017751;28;19968;-78
2022/03/18 07:15:08;;;;;;;;;;;5.50;99.90;;;;;;5018448;28;19918;-77
2022/03/18 07:20:19;;;;;;;;;;;5.50;99.90;;;;;;5012199;28;19921;-80
2022/03/18 07:22:45;;;;;;;;;;;5.50;99.90;;;;;;5014312;28;20009;-80
2022/03/18 07:25:10;;;;;;;;;;;5.50;99.90;;;;;;5015931;28;20402;-79
2022/03/18 07:27:36;;;;;;;;;;;5.50;99.90;;;;;;5018063;28;20379;-79
2022/03/18 07:30:05;;;;;;;;;;;5.60;99.90;;;;;;5016784;28;20008;-79
2022/03/18 07:32:31;;;;;;;;;;;5.50;99.90;;;;;;5011255;28;19922;-79
2022/03/18 07:34:56;;;;;;;;;;;5.60;99.90;;;;;;5002810;28;20283;-79
2022/03/18 07:37:22;;;;;;;;;;;5.60;99.90;;;;;;5011767;28;19921;-78
2022/03/18 07:39:48;;;;;;;;;;;5.70;99.90;;;;;;5012434;28;20287;-79
2022/03/18 07:42:13;;;;;;;;;;;5.70;99.90;;;;;;5015929;28;19963;-79
2022/03/18 07:44:39;;;;;;;;;;;5.70;99.90;;;;;;4995503;28;19917;-79
2022/03/18 07:47:05;;;;;;;;;;;5.70;99.90;;;;;;5011427;28;20399;-78
2022/03/18 07:49:30;;;;;;;;;;;5.70;99.90;;;;;;5013935;28;19921;-79
2022/03/18 07:51:56;;;;;;;;;;;5.70;99.90;;;;;;5016339;28;20391;-77
2022/03/18 07:54:21;;;;;;;;;;;5.70;99.90;;;;;;5012785;28;19929;-79
2022/03/18 07:56:47;;;;;;;;;;;5.70;99.90;;;;;;5013030;28;19918;-78
2022/03/18 07:59:13;;;;;;;;;;;5.70;99.90;;;;;;5016231;28;19918;-78
2022/03/18 08:01:39;;;;;;;;;;;5.70;99.90;;;;;;5015096;28;19957;-79
2022/03/18 08:04:06;;;;;;;;;;;5.80;99.90;;;;;;5015564;28;19967;-78
2022/03/18 08:06:32;;;;;;;;;;;5.80;99.90;;;;;;5015892;28;19924;-79
2022/03/18 08:08:57;;;;;;;;;;;5.80;99.90;;;;;;4995952;28;20384;-78
2022/03/18 08:11:23;;;;;;;;;;;5.80;99.90;;;;;;5006609;28;19937;-78
2022/03/18 08:13:50;;;;;;;;;;;5.90;99.90;;;;;;5007360;28;19914;-78
2022/03/18 08:16:16;;;;;;;;;;;5.80;99.90;;;;;;5012681;28;20276;-78
2022/03/18 08:18:41;;;;;;;;;;;5.80;99.90;;;;;;5009172;28;19920;-78
2022/03/18 08:21:07;;;;;;;;;;;5.80;99.90;;;;;;5008630;28;19932;-78
2022/03/18 08:23:34;;;;;;;;;;;5.80;99.90;;;;;;5007489;28;19976;-78
2022/03/18 08:25:59;;;;;;;;;;;5.80;99.90;;;;;;5012272;28;19924;-79
2022/03/18 08:28:25;;;;;;;;;;;5.80;99.90;;;;;;4997913;28;19918;-78
2022/03/18 08:30:51;;;;;;;;;;;5.90;99.90;;;;;;5010683;28;19921;-78
2022/03/18 08:33:17;;;;;;;;;;;5.80;99.90;;;;;;5009780;28;19920;-77
2022/03/18 08:35:42;;;;;;;;;;;5.90;99.90;;;;;;5005677;28;19914;-78
2022/03/18 08:38:09;;;;;;;;;;;5.90;99.90;;;;;;5013331;28;19929;-78
2022/03/18 08:40:36;;;;;;;;;;;5.90;99.90;;;;;;5012782;28;19924;-79
2022/03/18 08:43:05;;;;;;;;;;;6.00;99.90;;;;;;5003999;28;20000;-77
2022/03/18 08:45:32;;;;;;;;;;;5.90;99.90;;;;;;5012376;28;19924;-78
2022/03/18 08:47:57;;;;;;;;;;;5.90;99.90;;;;;;5002958;28;20030;-78
2022/03/18 08:50:23;;;;;;;;;;;6.00;99.90;;;;;;5004362;28;19945;-78
2022/03/18 08:52:50;;;;;;;;;;;6.00;99.90;;;;;;5014322;28;19924;-78
2022/03/18 08:55:16;;;;;;;;;;;6.00;99.90;;;;;;5004229;28;19972;-79
2022/03/18 08:57:41;;;;;;;;;;;6.00;99.90;;;;;;4993084;28;20013;-78
2022/03/18 09:00:09;;;;;;;;;;;6.00;99.90;;;;;;5009708;28;20372;-78
2022/03/18 09:02:38;;;;;;;;;;;6.10;99.90;;;;;;4992001;28;19964;-78
2022/03/18 09:05:04;;;;;;;;;;;6.10;99.90;;;;;;5007402;28;19921;-78
2022/03/18 09:07:30;;;;;;;;;;;6.20;99.90;;;;;;5006368;28;19924;-77
2022/03/18 09:09:56;;;;;;;;;;;6.20;99.90;;;;;;5010650;28;19917;-77
2022/03/18 09:12:21;;;;;;;;;;;6.20;99.90;;;;;;5013273;28;19921;-78
2022/03/18 09:14:47;;;;;;;;;;;6.30;99.90;;;;;;5011493;28;20372;-78
2022/03/18 09:17:12;;;;;;;;;;;6.30;99.90;;;;;;5002255;28;19981;-78
2022/03/18 09:19:38;;;;;;;;;;;6.30;99.90;;;;;;5011914;28;19922;-78
2022/03/18 09:22:08;;;;;;;;;;;6.40;99.90;;;;;;5008571;28;19976;-78
2022/03/18 09:24:34;;;;;;;;;;;6.50;99.90;;;;;;4987811;28;19921;-78
2022/03/18 09:27:00;;;;;;;;;;;6.50;99.90;;;;;;5011125;28;20318;-78
2022/03/18 09:29:26;;;;;;;;;;;6.50;99.90;;;;;;5009251;28;20000;-77
2022/03/18 09:31:52;;;;;;;;;;;6.60;99.90;;;;;;5011843;28;20403;-78
2022/03/18 09:34:22;;;;;;;;;;;6.60;99.90;;;;;;5008211;28;20004;-77
2022/03/18 09:36:48;;;;;;;;;;;6.70;99.90;;;;;;5008909;28;19914;-78
2022/03/18 09:39:14;;;;;;;;;;;6.80;99.90;;;;;;5003445;28;19917;-78
2022/03/18 09:41:40;;;;;;;;;;;6.80;99.90;;;;;;5016317;28;19928;-78
2022/03/18 09:44:05;;;;;;;;;;;6.80;99.90;;;;;;5011364;28;20063;-78
2022/03/18 09:46:32;;;;;;;;;;;6.80;99.90;;;;;;5009842;28;19917;-78
2022/03/18 09:48:59;;;;;;;;;;;6.90;99.90;;;;;;5015660;28;19920;-78
2022/03/18 09:51:29;;;;;;;;;;;6.90;99.90;;;;;;5012413;28;19925;-79
2022/03/18 09:53:54;;;;;;;;;;;6.90;99.90;;;;;;5008317;28;19918;-78
2022/03/18 09:56:21;;;;;;;;;;;6.90;99.90;;;;;;4995339;28;19918;-78
2022/03/18 09:58:46;;;;;;;;;;;6.90;99.90;;;;;;5025621;23;20426;-86
2022/03/18 10:01:12;;;;;;;;;;;7.00;99.90;;;;;;4999535;28;19925;-86
2022/03/18 10:03:39;;;;;;;;;;;7.00;99.90;;;;;;5017290;28;19917;-86
2022/03/18 10:06:05;;;;;;;;;;;7.10;99.90;;;;;;5016485;28;19921;-86
2022/03/18 10:08:33;;;;;;;;;;;7.10;99.90;;;;;;5032883;28;19914;-87
2022/03/18 10:10:59;;;;;;;;;;;7.10;99.90;;;;;;5013643;28;20020;-87
2022/03/18 10:13:24;;;;;;;;;;;7.10;99.90;;;;;;4990770;28;20020;-86
2022/03/18 10:15:50;;;;;;;;;;;7.10;99.90;;;;;;4997101;28;19918;-87
2022/03/18 10:18:16;;;;;;;;;;;7.10;99.90;;;;;;5031548;28;19913;-87
2022/03/18 10:20:50;;;;;;;;;;;7.10;99.90;;;;;;4997683;28;19921;-85
2022/03/18 10:23:15;;;;;;;;;;;7.20;99.90;;;;;;5032559;28;19978;-86
2022/03/18 10:25:41;;;;;;;;;;;7.20;99.90;;;;;;5016305;28;20387;-88
2022/03/18 10:28:08;;;;;;;;;;;7.00;99.90;;;;;;5017799;28;19948;-85
2022/03/18 10:30:34;;;;;;;;;;;7.00;99.90;;;;;;5016432;28;19944;-86
2022/03/18 10:33:00;;;;;;;;;;;7.00;99.90;;;;;;5033299;28;19917;-86
2022/03/18 10:38:26;;;;;;;;;;;6.90;99.90;;;;;;5030711;28;19963;-88
2022/03/18 10:40:53;;;;;;;;;;;6.90;99.90;;;;;;5012004;28;19921;-87
2022/03/18 10:43:20;;;;;;;;;;;7.00;99.90;;;;;;5013453;28;19968;-87
2022/03/18 10:45:58;;;;;;;;;;;7.00;99.90;;;;;;5006314;28;19917;-88
2022/03/18 10:48:24;;;;;;;;;;;7.00;99.90;;;;;;5025136;28;20375;-88
2022/03/18 10:51:00;;;;;;;;;;;7.10;99.90;;;;;;4997528;28;19928;-86
2022/03/18 10:53:30;;;;;;;;;;;7.10;99.90;;;;;;5031499;28;20590;-86
2022/03/18 10:55:58;;;;;;;;;;;7.20;99.90;;;;;;5012587;28;19945;-87
2022/03/18 10:58:24;;;;;;;;;;;7.20;99.90;;;;;;5029371;28;20437;-87
2022/03/18 11:00:50;;;;;;;;;;;7.20;99.90;;;;;;5014837;28;19917;-87
2022/03/18 11:03:16;;;;;;;;;;;7.30;99.90;;;;;;5031139;28;19920;-87
2022/03/18 11:05:43;;;;;;;;;;;7.30;99.90;;;;;;5032630;28;19913;-86
2022/03/18 11:08:13;;;;;;;;;;;7.40;99.90;;;;;;5016394;28;20004;-86
2022/03/18 11:13:32;;;;;;;;;;;7.60;99.90;;;;;;5030824;28;20004;-86
2022/03/18 11:15:59;;;;;;;;;;;7.80;99.90;;;;;;5028180;28;20321;-88
2022/03/18 11:18:29;;;;;;;;;;;7.90;99.90;;;;;;5029648;28;20307;-86
2022/03/18 11:20:56;;;;;;;;;;;8.00;99.90;;;;;;5009784;28;19925;-87
2022/03/18 11:23:25;;;;;;;;;;;8.00;99.90;;;;;;5015174;28;19917;-89
2022/03/18 11:25:55;;;;;;;;;;;8.10;99.90;;;;;;5015746;28;19913;-88
2022/03/18 11:28:22;;;;;;;;;;;8.20;99.90;;;;;;5031720;28;19920;-87
2022/03/18 11:30:48;;;;;;;;;;;8.40;99.90;;;;;;5015520;28;20290;-87
2022/03/18 11:33:14;;;;;;;;;;;8.50;99.90;;;;;;4999142;28;19921;-88
2022/03/18 11:35:52;;;;;;;;;;;8.60;99.90;;;;;;5012424;28;20287;-87
2022/03/18 11:38:17;;;;;;;;;;;8.70;99.90;;;;;;5012385;28;19920;-86
2022/03/18 11:40:53;;;;;;;;;;;8.80;99.90;;;;;;5016910;28;19917;-87
2022/03/18 11:43:48;;;;;;;;;;;8.80;99.90;;;;;;5018123;28;19920;-85
2022/03/18 11:46:13;;;;;;;;;;;8.90;99.90;;;;;;4991527;28;19921;-87
2022/03/18 11:48:56;;;;;;;;;;;8.90;99.90;;;;;;5031186;28;19980;-86
2022/03/18 11:51:25;;;;;;;;;;;9.00;99.90;;;;;;5014227;28;19913;-85
2022/03/18 11:53:52;;;;;;;;;;;9.10;99.90;;;;;;5031192;28;19928;-86
2022/03/18 11:56:22;;;;;;;;;;;9.10;99.90;;;;;;5014699;28;20016;-87
2022/03/18 11:58:48;;;;;;;;;;;9.10;99.90;;;;;;5014215;28;19928;-87
2022/03/18 12:01:40;;;;;;;;;;;9.10;99.90;;;;;;5015437;28;19917;-88
2022/03/18 12:04:07;;;;;;;;;;;9.10;99.90;;;;;;5014698;28;19960;-88
2022/03/18 12:06:33;;;;;;;;;;;9.10;99.90;;;;;;5011883;28;19960;-89
2022/03/18 12:08:59;;;;;;;;;;;9.00;99.90;;;;;;5014805;28;19917;-88
2022/03/18 12:11:25;;;;;;;;;;;9.00;99.90;;;;;;5031607;28;20011;-88
2022/03/18 12:13:51;;;;;;;;;;;9.00;99.90;;;;;;5026390;28;19967;-87
2022/03/18 12:16:23;;;;;;;;;;;9.10;99.90;;;;;;5012414;28;19909;-87
2022/03/18 12:18:59;;;;;;;;;;;9.10;99.90;;;;;;5011733;28;20300;-89
2022/03/18 12:21:33;;;;;;;;;;;9.10;99.90;;;;;;5012560;28;19918;-88
2022/03/18 12:24:04;;;;;;;;;;;9.00;99.90;;;;;;5013800;28;20285;-86
2022/03/18 12:26:30;;;;;;;;;;;8.90;99.90;;;;;;5031037;28;19920;-88
2022/03/18 12:28:56;;;;;;;;;;;8.90;99.90;;;;;;5013612;28;19918;-88
2022/03/18 12:31:21;;;;;;;;;;;8.90;99.90;;;;;;5012272;28;20356;-87
2022/03/18 12:33:55;;;;;;;;;;;8.90;99.90;;;;;;5014400;28;19953;-88
2022/03/18 12:36:24;;;;;;;;;;;8.90;99.90;;;;;;5014116;28;19917;-87
2022/03/18 12:38:50;;;;;;;;;;;8.90;99.90;;;;;;5013229;28;19924;-86
2022/03/18 12:41:18;;;;;;;;;;;8.90;99.90;;;;;;5012864;28;19922;-88
2022/03/18 12:43:44;;;;;;;;;;;8.80;99.90;;;;;;5011474;28;19913;-86
2022/03/18 12:46:12;;;;;;;;;;;8.80;99.90;;;;;;5011785;28;19925;-87
2022/03/18 12:48:46;;;;;;;;;;;8.80;99.90;;;;;;4995737;28;19960;-87
2022/03/18 12:51:11;;;;;;;;;;;8.70;99.90;;;;;;4995713;28;19921;-87
2022/03/18 12:53:37;;;;;;;;;;;8.60;99.90;;;;;;5010745;28;19918;-87
2022/03/18 12:56:15;;;;;;;;;;;8.60;99.90;;;;;;5000694;28;19917;-87
2022/03/18 12:58:46;;;;;;;;;;;8.70;99.90;;;;;;5015183;28;19974;-87
2022/03/18 13:01:13;;;;;;;;;;;8.70;99.90;;;;;;5030016;28;20011;-88
2022/03/18 13:03:49;;;;;;;;;;;8.80;99.90;;;;;;5010877;28;19913;-86
2022/03/18 13:06:19;;;;;;;;;;;8.90;99.90;;;;;;4993023;28;19967;-85
2022/03/18 13:08:54;;;;;;;;;;;8.80;99.90;;;;;;5029545;28;20284;-86
2022/03/18 13:11:20;;;;;;;;;;;8.90;99.90;;;;;;5027330;28;19936;-87
2022/03/18 13:13:46;;;;;;;;;;;9.00;99.90;;;;;;5015871;28;19916;-89
2022/03/18 13:16:14;;;;;;;;;;;9.10;99.90;;;;;;5018123;28;20000;-87
2022/03/18 13:18:47;;;;;;;;;;;9.10;99.90;;;;;;4999511;28;20371;-87
2022/03/18 13:21:13;;;;;;;;;;;9.20;99.90;;;;;;5002956;28;20256;-86
2022/03/18 13:23:40;;;;;;;;;;;9.30;99.90;;;;;;5000372;28;19917;-89
2022/03/18 13:26:06;;;;;;;;;;;9.30;99.90;;;;;;5014767;28;19914;-86
2022/03/18 13:28:32;;;;;;;;;;;9.40;99.90;;;;;;5014915;28;19914;-87
2022/03/18 13:33:45;;;;;;;;;;;9.40;99.90;;;;;;5034522;28;20441;-88
2022/03/18 13:36:22;;;;;;;;;;;9.50;99.90;;;;;;5017083;28;19913;-89
2022/03/18 13:38:48;;;;;;;;;;;9.60;99.90;;;;;;5017529;28;19971;-89
2022/03/18 13:41:14;;;;;;;;;;;9.30;99.90;;;;;;5017984;28;19963;-85
2022/03/18 13:43:40;;;;;;;;;;;9.10;99.90;;;;;;5018126;28;20330;-88
2022/03/18 13:46:12;;;;;;;;;;;9.10;99.90;;;;;;4994269;28;19964;-88
2022/03/18 13:48:38;;;;;;;;;;;9.10;99.90;;;;;;5010038;28;19913;-88
2022/03/18 13:51:07;;;;;;;;;;;9.10;99.90;;;;;;5014215;28;19909;-86
2022/03/18 13:53:33;;;;;;;;;;;9.10;99.90;;;;;;5018174;28;19924;-88
2022/03/18 13:56:13;;;;;;;;;;;9.10;99.90;;;;;;4997967;28;19917;-85
2022/03/18 13:58:39;;;;;;;;;;;9.10;99.90;;;;;;5031511;28;19997;-89
2022/03/18 14:01:09;;;;;;;;;;;9.20;99.90;;;;;;5017734;28;19952;-88
2022/03/18 14:03:38;;;;;;;;;;;9.20;99.90;;;;;;5018773;28;19960;-89
2022/03/18 14:06:05;;;;;;;;;;;9.10;99.90;;;;;;5017338;28;19913;-89
2022/03/18 14:08:32;;;;;;;;;;;9.00;99.90;;;;;;5014057;28;19913;-89
2022/03/18 14:11:00;;;;;;;;;;;9.00;99.90;;;;;;5025356;28;19914;-87
2022/03/18 14:13:30;;;;;;;;;;;9.00;99.90;;;;;;4998840;28;19920;-87
2022/03/18 14:15:56;;;;;;;;;;;9.00;99.90;;;;;;5014229;28;19938;-90
2022/03/18 14:18:22;;;;;;;;;;;9.00;99.90;;;;;;5014933;28;19913;-85
2022/03/18 14:20:47;;;;;;;;;;;8.90;99.90;;;;;;5006109;28;20012;-88
2022/03/18 14:23:14;;;;;;;;;;;8.80;99.90;;;;;;5006834;28;19913;-88
2022/03/18 14:25:40;;;;;;;;;;;8.70;99.90;;;;;;5001254;28;20563;-89
2022/03/18 14:28:09;;;;;;;;;;;8.60;99.90;;;;;;5031241;28;19953;-88
2022/03/18 14:30:35;;;;;;;;;;;8.40;99.90;;;;;;5012985;28;19921;-89
2022/03/18 14:33:02;;;;;;;;;;;8.40;99.90;;;;;;5010331;28;19921;-89
2022/03/18 14:35:28;;;;;;;;;;;8.40;99.90;;;;;;5031555;28;20439;-88
2022/03/18 14:37:53;;;;;;;;;;;8.40;99.90;;;;;;5014934;28;19949;-89
2022/03/18 14:40:21;;;;;;;;;;;8.40;99.90;;;;;;4995035;28;19922;-90
2022/03/18 14:42:47;;;;;;;;;;;8.40;99.90;;;;;;4997809;28;19924;-88
2022/03/18 14:45:13;;;;;;;;;;;8.30;99.90;;;;;;5012512;28;19920;-89
2022/03/18 14:47:40;;;;;;;;;;;8.20;99.90;;;;;;5011921;28;20013;-85
2022/03/18 14:50:06;;;;;;;;;;;8.10;99.90;;;;;;4995975;28;20418;-88
2022/03/18 14:52:32;;;;;;;;;;;8.00;99.90;;;;;;5014559;28;19935;-90
2022/03/18 14:57:42;;;;;;;;;;;8.00;99.90;;;;;;5023579;28;20454;-87